Terminal Aerodrome Forecast
Issued by NWS

Home | Current Version | Previous Version | Text Only | Print | Product List | Glossary On
Versions: 1 2 3 4 5 6 7 8 9 10 11 12 13 14 15
208
FTPA31 PHFO 212340
TAFHJR
TAF
PHJR 212340Z 2200/2224 05009KT P6SM VCSH SCT035 BKN045
     FM220200 05007KT P6SM FEW025 SCT045
     FM222000 07010KT P6SM SCT040=

USA.gov is the U.S. government's official web portal to all federal, state and local government web resources and services.